sensor_id;sensor_type;location;lat;lon;timestamp;P1;durP1;ratioP1;P2;durP2;ratioP2
11893;SDS011;6006;49.696;8.662;2023-04-03T00:01:25;1.90;;;1.80;;
11893;SDS011;6006;49.696;8.662;2023-04-03T00:03:52;1.33;;;1.23;;
11893;SDS011;6006;49.696;8.662;2023-04-03T00:06:19;3.17;;;1.77;;
11893;SDS011;6006;49.696;8.662;2023-04-03T00:08:46;1.80;;;1.70;;
11893;SDS011;6006;49.696;8.662;2023-04-03T00:11:15;1.63;;;1.53;;
11893;SDS011;6006;49.696;8.662;2023-04-03T00:13:42;1.80;;;1.70;;
11893;SDS011;6006;49.696;8.662;2023-04-03T00:16:09;2.30;;;1.90;;
11893;SDS011;6006;49.696;8.662;2023-04-03T00:18:37;1.90;;;1.80;;
11893;SDS011;6006;49.696;8.662;2023-04-03T00:21:05;1.90;;;1.80;;
11893;SDS011;6006;49.696;8.662;2023-04-03T00:23:32;1.73;;;1.63;;
11893;SDS011;6006;49.696;8.662;2023-04-03T00:25:59;2.10;;;1.90;;
11893;SDS011;6006;49.696;8.662;2023-04-03T00:28:28;1.93;;;1.83;;
11893;SDS011;6006;49.696;8.662;2023-04-03T00:30:55;1.80;;;1.70;;
11893;SDS011;6006;49.696;8.662;2023-04-03T00:33:21;2.10;;;2.00;;
11893;SDS011;6006;49.696;8.662;2023-04-03T00:35:49;3.00;;;2.10;;
11893;SDS011;6006;49.696;8.662;2023-04-03T00:38:16;1.97;;;1.87;;
11893;SDS011;6006;49.696;8.662;2023-04-03T00:40:45;3.10;;;2.10;;
11893;SDS011;6006;49.696;8.662;2023-04-03T00:43:14;1.93;;;1.60;;
11893;SDS011;6006;49.696;8.662;2023-04-03T00:45:44;2.23;;;2.03;;
11893;SDS011;6006;49.696;8.662;2023-04-03T00:48:13;2.33;;;2.20;;
11893;SDS011;6006;49.696;8.662;2023-04-03T00:50:42;2.20;;;1.60;;
11893;SDS011;6006;49.696;8.662;2023-04-03T00:53:11;2.27;;;2.07;;
11893;SDS011;6006;49.696;8.662;2023-04-03T00:55:40;2.53;;;2.33;;
11893;SDS011;6006;49.696;8.662;2023-04-03T00:58:09;2.37;;;2.17;;
11893;SDS011;6006;49.696;8.662;2023-04-03T01:00:37;2.40;;;2.20;;
11893;SDS011;6006;49.696;8.662;2023-04-03T01:03:09;2.57;;;2.37;;
11893;SDS011;6006;49.696;8.662;2023-04-03T01:05:36;3.07;;;2.23;;
11893;SDS011;6006;49.696;8.662;2023-04-03T01:08:03;2.37;;;2.17;;
11893;SDS011;6006;49.696;8.662;2023-04-03T01:10:31;2.57;;;2.30;;
11893;SDS011;6006;49.696;8.662;2023-04-03T01:12:58;3.10;;;2.43;;
11893;SDS011;6006;49.696;8.662;2023-04-03T01:15:26;2.43;;;2.23;;
11893;SDS011;6006;49.696;8.662;2023-04-03T01:17:55;2.37;;;2.20;;
11893;SDS011;6006;49.696;8.662;2023-04-03T01:23:27;4.27;;;2.47;;
11893;SDS011;6006;49.696;8.662;2023-04-03T01:26:10;2.33;;;2.13;;
11893;SDS011;6006;49.696;8.662;2023-04-03T01:28:38;2.57;;;2.13;;
11893;SDS011;6006;49.696;8.662;2023-04-03T01:31:08;3.10;;;2.47;;
11893;SDS011;6006;49.696;8.662;2023-04-03T01:33:42;2.47;;;2.27;;
11893;SDS011;6006;49.696;8.662;2023-04-03T01:36:10;3.10;;;2.90;;
11893;SDS011;6006;49.696;8.662;2023-04-03T01:38:40;3.03;;;2.57;;
11893;SDS011;6006;49.696;8.662;2023-04-03T01:41:07;4.03;;;2.60;;
11893;SDS011;6006;49.696;8.662;2023-04-03T01:43:34;2.60;;;2.40;;
11893;SDS011;6006;49.696;8.662;2023-04-03T01:46:00;2.70;;;2.50;;
11893;SDS011;6006;49.696;8.662;2023-04-03T01:48:27;2.73;;;2.53;;
11893;SDS011;6006;49.696;8.662;2023-04-03T01:50:56;2.83;;;2.53;;
11893;SDS011;6006;49.696;8.662;2023-04-03T01:53:23;3.03;;;2.50;;
11893;SDS011;6006;49.696;8.662;2023-04-03T01:55:49;2.77;;;2.47;;
11893;SDS011;6006;49.696;8.662;2023-04-03T01:58:16;3.00;;;2.80;;
11893;SDS011;6006;49.696;8.662;2023-04-03T02:00:43;2.40;;;2.20;;
11893;SDS011;6006;49.696;8.662;2023-04-03T02:03:10;3.10;;;2.53;;
11893;SDS011;6006;49.696;8.662;2023-04-03T02:05:37;4.60;;;3.27;;
11893;SDS011;6006;49.696;8.662;2023-04-03T02:08:06;2.83;;;2.63;;
11893;SDS011;6006;49.696;8.662;2023-04-03T02:10:32;3.00;;;2.30;;
11893;SDS011;6006;49.696;8.662;2023-04-03T02:12:59;3.13;;;2.93;;
11893;SDS011;6006;49.696;8.662;2023-04-03T02:15:26;4.07;;;2.80;;
11893;SDS011;6006;49.696;8.662;2023-04-03T02:17:53;3.23;;;2.93;;
11893;SDS011;6006;49.696;8.662;2023-04-03T02:20:20;2.73;;;2.53;;
11893;SDS011;6006;49.696;8.662;2023-04-03T02:22:47;3.00;;;2.80;;
11893;SDS011;6006;49.696;8.662;2023-04-03T02:25:15;2.67;;;2.47;;
11893;SDS011;6006;49.696;8.662;2023-04-03T02:27:43;3.27;;;2.60;;
11893;SDS011;6006;49.696;8.662;2023-04-03T02:30:10;2.90;;;2.70;;
11893;SDS011;6006;49.696;8.662;2023-04-03T02:32:39;3.30;;;3.00;;
11893;SDS011;6006;49.696;8.662;2023-04-03T02:35:07;3.60;;;3.30;;
11893;SDS011;6006;49.696;8.662;2023-04-03T02:37:34;3.00;;;2.70;;
11893;SDS011;6006;49.696;8.662;2023-04-03T02:40:02;4.73;;;3.27;;
11893;SDS011;6006;49.696;8.662;2023-04-03T02:42:31;3.20;;;2.90;;
11893;SDS011;6006;49.696;8.662;2023-04-03T02:44:58;3.40;;;3.10;;
11893;SDS011;6006;49.696;8.662;2023-04-03T02:47:25;4.83;;;3.20;;
11893;SDS011;6006;49.696;8.662;2023-04-03T02:49:52;3.53;;;3.23;;
11893;SDS011;6006;49.696;8.662;2023-04-03T02:52:19;4.23;;;3.57;;
11893;SDS011;6006;49.696;8.662;2023-04-03T02:54:46;3.57;;;3.30;;
11893;SDS011;6006;49.696;8.662;2023-04-03T02:57:13;3.90;;;3.60;;
11893;SDS011;6006;49.696;8.662;2023-04-03T02:59:41;4.30;;;3.60;;
11893;SDS011;6006;49.696;8.662;2023-04-03T03:02:09;3.63;;;3.30;;
11893;SDS011;6006;49.696;8.662;2023-04-03T03:04:36;3.00;;;2.80;;
11893;SDS011;6006;49.696;8.662;2023-04-03T03:07:03;3.30;;;3.00;;
11893;SDS011;6006;49.696;8.662;2023-04-03T03:09:30;4.10;;;3.50;;
11893;SDS011;6006;49.696;8.662;2023-04-03T03:11:57;3.73;;;3.37;;
11893;SDS011;6006;49.696;8.662;2023-04-03T03:14:25;2.80;;;2.60;;
11893;SDS011;6006;49.696;8.662;2023-04-03T03:16:53;3.80;;;3.50;;
11893;SDS011;6006;49.696;8.662;2023-04-03T03:19:20;4.23;;;3.47;;
11893;SDS011;6006;49.696;8.662;2023-04-03T03:21:46;3.63;;;3.30;;
11893;SDS011;6006;49.696;8.662;2023-04-03T03:24:13;4.43;;;2.93;;
11893;SDS011;6006;49.696;8.662;2023-04-03T03:26:41;3.70;;;3.40;;
11893;SDS011;6006;49.696;8.662;2023-04-03T03:29:07;3.70;;;3.40;;
11893;SDS011;6006;49.696;8.662;2023-04-03T03:31:34;2.83;;;2.63;;
11893;SDS011;6006;49.696;8.662;2023-04-03T03:34:03;3.20;;;3.00;;
11893;SDS011;6006;49.696;8.662;2023-04-03T03:36:29;3.23;;;3.03;;
11893;SDS011;6006;49.696;8.662;2023-04-03T03:38:56;3.77;;;3.50;;
11893;SDS011;6006;49.696;8.662;2023-04-03T03:41:23;3.40;;;3.10;;
11893;SDS011;6006;49.696;8.662;2023-04-03T03:43:50;4.33;;;3.77;;
11893;SDS011;6006;49.696;8.662;2023-04-03T03:46:17;4.00;;;3.60;;
11893;SDS011;6006;49.696;8.662;2023-04-03T03:48:44;4.10;;;3.70;;
11893;SDS011;6006;49.696;8.662;2023-04-03T03:51:12;3.53;;;3.33;;
11893;SDS011;6006;49.696;8.662;2023-04-03T03:53:39;4.00;;;3.40;;
11893;SDS011;6006;49.696;8.662;2023-04-03T03:56:06;5.17;;;4.20;;
11893;SDS011;6006;49.696;8.662;2023-04-03T03:58:33;4.47;;;2.90;;
11893;SDS011;6006;49.696;8.662;2023-04-03T04:01:00;3.40;;;3.10;;
11893;SDS011;6006;49.696;8.662;2023-04-03T04:03:28;2.93;;;2.70;;
11893;SDS011;6006;49.696;8.662;2023-04-03T04:05:55;4.40;;;3.47;;
11893;SDS011;6006;49.696;8.662;2023-04-03T04:08:23;4.07;;;3.33;;
11893;SDS011;6006;49.696;8.662;2023-04-03T04:10:50;3.47;;;2.80;;
11893;SDS011;6006;49.696;8.662;2023-04-03T04:13:17;4.60;;;3.27;;
11893;SDS011;6006;49.696;8.662;2023-04-03T04:15:44;3.80;;;3.40;;
11893;SDS011;6006;49.696;8.662;2023-04-03T04:18:11;6.67;;;5.10;;
11893;SDS011;6006;49.696;8.662;2023-04-03T04:20:38;9.73;;;6.30;;
11893;SDS011;6006;49.696;8.662;2023-04-03T04:23:05;9.53;;;6.80;;
11893;SDS011;6006;49.696;8.662;2023-04-03T04:25:33;7.90;;;6.37;;
11893;SDS011;6006;49.696;8.662;2023-04-03T04:28:00;7.63;;;5.90;;
11893;SDS011;6006;49.696;8.662;2023-04-03T04:30:26;8.77;;;5.33;;
11893;SDS011;6006;49.696;8.662;2023-04-03T04:32:53;6.83;;;5.50;;
11893;SDS011;6006;49.696;8.662;2023-04-03T04:35:20;6.37;;;4.80;;
11893;SDS011;6006;49.696;8.662;2023-04-03T04:37:47;5.13;;;4.43;;
11893;SDS011;6006;49.696;8.662;2023-04-03T04:40:15;4.80;;;4.30;;
11893;SDS011;6006;49.696;8.662;2023-04-03T04:42:43;4.17;;;3.77;;
11893;SDS011;6006;49.696;8.662;2023-04-03T04:45:10;3.77;;;3.47;;
11893;SDS011;6006;49.696;8.662;2023-04-03T04:47:37;6.60;;;3.97;;
11893;SDS011;6006;49.696;8.662;2023-04-03T04:50:04;3.83;;;2.83;;
11893;SDS011;6006;49.696;8.662;2023-04-03T04:52:31;4.57;;;3.73;;
11893;SDS011;6006;49.696;8.662;2023-04-03T04:54:58;3.40;;;2.83;;
11893;SDS011;6006;49.696;8.662;2023-04-03T04:57:25;4.47;;;3.27;;
11893;SDS011;6006;49.696;8.662;2023-04-03T04:59:54;3.57;;;3.27;;
11893;SDS011;6006;49.696;8.662;2023-04-03T05:02:21;5.80;;;3.63;;
11893;SDS011;6006;49.696;8.662;2023-04-03T05:04:47;6.73;;;3.50;;
11893;SDS011;6006;49.696;8.662;2023-04-03T05:07:16;4.27;;;3.80;;
11893;SDS011;6006;49.696;8.662;2023-04-03T05:09:43;5.67;;;4.10;;
11893;SDS011;6006;49.696;8.662;2023-04-03T05:12:10;5.07;;;3.70;;
11893;SDS011;6006;49.696;8.662;2023-04-03T05:14:37;5.20;;;4.33;;
11893;SDS011;6006;49.696;8.662;2023-04-03T05:17:05;4.63;;;3.53;;
11893;SDS011;6006;49.696;8.662;2023-04-03T05:19:32;4.07;;;3.67;;
11893;SDS011;6006;49.696;8.662;2023-04-03T05:21:59;3.63;;;3.33;;
11893;SDS011;6006;49.696;8.662;2023-04-03T05:24:26;4.37;;;3.30;;
11893;SDS011;6006;49.696;8.662;2023-04-03T05:26:52;3.97;;;3.60;;
11893;SDS011;6006;49.696;8.662;2023-04-03T05:29:20;3.87;;;3.57;;
11893;SDS011;6006;49.696;8.662;2023-04-03T05:31:48;4.93;;;3.57;;
11893;SDS011;6006;49.696;8.662;2023-04-03T05:34:16;4.07;;;3.67;;
11893;SDS011;6006;49.696;8.662;2023-04-03T05:36:43;4.13;;;3.67;;
11893;SDS011;6006;49.696;8.662;2023-04-03T05:39:10;4.03;;;3.63;;
11893;SDS011;6006;49.696;8.662;2023-04-03T05:41:37;7.27;;;4.07;;
11893;SDS011;6006;49.696;8.662;2023-04-03T05:44:04;3.03;;;2.83;;
11893;SDS011;6006;49.696;8.662;2023-04-03T05:46:31;3.60;;;3.30;;
11893;SDS011;6006;49.696;8.662;2023-04-03T05:48:58;4.87;;;4.07;;
11893;SDS011;6006;49.696;8.662;2023-04-03T05:51:28;6.33;;;4.47;;
11893;SDS011;6006;49.696;8.662;2023-04-03T05:54:00;6.00;;;4.40;;
11893;SDS011;6006;49.696;8.662;2023-04-03T05:56:32;3.93;;;3.63;;
11893;SDS011;6006;49.696;8.662;2023-04-03T05:58:59;4.50;;;3.70;;
11893;SDS011;6006;49.696;8.662;2023-04-03T06:01:26;4.57;;;3.60;;
11893;SDS011;6006;49.696;8.662;2023-04-03T06:03:53;4.43;;;4.03;;
11893;SDS011;6006;49.696;8.662;2023-04-03T06:06:20;6.13;;;4.10;;
11893;SDS011;6006;49.696;8.662;2023-04-03T06:08:49;4.83;;;3.70;;
11893;SDS011;6006;49.696;8.662;2023-04-03T06:11:16;9.37;;;3.90;;
11893;SDS011;6006;49.696;8.662;2023-04-03T06:13:43;5.73;;;3.13;;
11893;SDS011;6006;49.696;8.662;2023-04-03T06:16:11;3.93;;;3.53;;
11893;SDS011;6006;49.696;8.662;2023-04-03T06:18:40;4.87;;;4.07;;
11893;SDS011;6006;49.696;8.662;2023-04-03T06:21:07;4.50;;;4.10;;
11893;SDS011;6006;49.696;8.662;2023-04-03T06:23:34;3.80;;;3.40;;
11893;SDS011;6006;49.696;8.662;2023-04-03T06:26:02;4.67;;;3.90;;
11893;SDS011;6006;49.696;8.662;2023-04-03T06:28:30;3.33;;;3.10;;
11893;SDS011;6006;49.696;8.662;2023-04-03T06:30:57;3.77;;;3.43;;
11893;SDS011;6006;49.696;8.662;2023-04-03T06:33:24;4.47;;;2.97;;
11893;SDS011;6006;49.696;8.662;2023-04-03T06:35:55;5.00;;;2.90;;
11893;SDS011;6006;49.696;8.662;2023-04-03T06:38:23;3.10;;;2.63;;
11893;SDS011;6006;49.696;8.662;2023-04-03T06:40:49;2.70;;;2.27;;
11893;SDS011;6006;49.696;8.662;2023-04-03T06:43:18;3.53;;;2.80;;
11893;SDS011;6006;49.696;8.662;2023-04-03T06:45:46;4.03;;;2.80;;
11893;SDS011;6006;49.696;8.662;2023-04-03T06:48:13;3.60;;;2.70;;
11893;SDS011;6006;49.696;8.662;2023-04-03T06:50:40;3.00;;;2.40;;
11893;SDS011;6006;49.696;8.662;2023-04-03T06:53:07;2.67;;;2.40;;
11893;SDS011;6006;49.696;8.662;2023-04-03T06:55:34;2.53;;;1.80;;
11893;SDS011;6006;49.696;8.662;2023-04-03T06:58:02;3.27;;;2.13;;
11893;SDS011;6006;49.696;8.662;2023-04-03T07:00:31;2.70;;;2.10;;
11893;SDS011;6006;49.696;8.662;2023-04-03T07:02:58;3.23;;;2.67;;
11893;SDS011;6006;49.696;8.662;2023-04-03T07:05:25;2.30;;;1.97;;
11893;SDS011;6006;49.696;8.662;2023-04-03T07:07:52;3.13;;;2.20;;
11893;SDS011;6006;49.696;8.662;2023-04-03T07:10:19;2.60;;;2.00;;
11893;SDS011;6006;49.696;8.662;2023-04-03T07:12:46;3.03;;;1.80;;
11893;SDS011;6006;49.696;8.662;2023-04-03T07:15:13;3.27;;;2.17;;
11893;SDS011;6006;49.696;8.662;2023-04-03T07:17:41;2.10;;;1.90;;
11893;SDS011;6006;49.696;8.662;2023-04-03T07:20:09;4.97;;;2.07;;
11893;SDS011;6006;49.696;8.662;2023-04-03T07:22:36;2.03;;;1.93;;
11893;SDS011;6006;49.696;8.662;2023-04-03T07:25:04;2.27;;;1.80;;
11893;SDS011;6006;49.696;8.662;2023-04-03T07:27:32;2.60;;;2.00;;
11893;SDS011;6006;49.696;8.662;2023-04-03T07:29:59;1.70;;;1.60;;
11893;SDS011;6006;49.696;8.662;2023-04-03T07:32:26;1.70;;;1.60;;
11893;SDS011;6006;49.696;8.662;2023-04-03T07:34:54;1.93;;;1.70;;
11893;SDS011;6006;49.696;8.662;2023-04-03T07:37:21;2.63;;;2.47;;
11893;SDS011;6006;49.696;8.662;2023-04-03T07:39:48;2.10;;;1.60;;
11893;SDS011;6006;49.696;8.662;2023-04-03T07:42:15;1.80;;;1.70;;
11893;SDS011;6006;49.696;8.662;2023-04-03T07:44:42;2.30;;;1.70;;
11893;SDS011;6006;49.696;8.662;2023-04-03T07:47:09;2.37;;;1.60;;
11893;SDS011;6006;49.696;8.662;2023-04-03T07:49:36;2.60;;;1.50;;
11893;SDS011;6006;49.696;8.662;2023-04-03T07:52:06;2.90;;;1.30;;
11893;SDS011;6006;49.696;8.662;2023-04-03T07:54:34;2.77;;;1.17;;
11893;SDS011;6006;49.696;8.662;2023-04-03T07:57:01;1.70;;;1.13;;
11893;SDS011;6006;49.696;8.662;2023-04-03T07:59:29;2.43;;;0.93;;
11893;SDS011;6006;49.696;8.662;2023-04-03T08:01:55;2.50;;;1.10;;
11893;SDS011;6006;49.696;8.662;2023-04-03T08:04:22;0.80;;;0.80;;
11893;SDS011;6006;49.696;8.662;2023-04-03T08:06:50;1.07;;;0.97;;
11893;SDS011;6006;49.696;8.662;2023-04-03T08:09:18;1.30;;;1.10;;
11893;SDS011;6006;49.696;8.662;2023-04-03T08:11:45;1.47;;;1.17;;
11893;SDS011;6006;49.696;8.662;2023-04-03T08:14:12;2.13;;;1.10;;
11893;SDS011;6006;49.696;8.662;2023-04-03T08:16:43;3.77;;;1.07;;
11893;SDS011;6006;49.696;8.662;2023-04-03T08:19:11;1.97;;;1.00;;
11893;SDS011;6006;49.696;8.662;2023-04-03T08:21:40;1.60;;;0.83;;
11893;SDS011;6006;49.696;8.662;2023-04-03T08:24:07;0.93;;;0.73;;
11893;SDS011;6006;49.696;8.662;2023-04-03T08:26:36;1.57;;;0.80;;
11893;SDS011;6006;49.696;8.662;2023-04-03T08:29:03;2.57;;;0.90;;
11893;SDS011;6006;49.696;8.662;2023-04-03T08:31:30;1.50;;;0.70;;
11893;SDS011;6006;49.696;8.662;2023-04-03T08:33:57;2.87;;;1.00;;
11893;SDS011;6006;49.696;8.662;2023-04-03T08:36:24;1.47;;;1.13;;
11893;SDS011;6006;49.696;8.662;2023-04-03T08:38:53;2.23;;;1.03;;
11893;SDS011;6006;49.696;8.662;2023-04-03T08:41:24;2.07;;;0.70;;
11893;SDS011;6006;49.696;8.662;2023-04-03T08:43:58;0.70;;;0.70;;
11893;SDS011;6006;49.696;8.662;2023-04-03T08:46:33;1.53;;;0.77;;
11893;SDS011;6006;49.696;8.662;2023-04-03T08:49:10;2.47;;;0.80;;
11893;SDS011;6006;49.696;8.662;2023-04-03T08:51:43;1.83;;;1.00;;
11893;SDS011;6006;49.696;8.662;2023-04-03T08:54:17;2.30;;;0.70;;
11893;SDS011;6006;49.696;8.662;2023-04-03T08:56:50;2.40;;;0.87;;
11893;SDS011;6006;49.696;8.662;2023-04-03T08:59:21;3.53;;;0.90;;
11893;SDS011;6006;49.696;8.662;2023-04-03T09:01:54;1.70;;;0.83;;
11893;SDS011;6006;49.696;8.662;2023-04-03T09:04:24;1.40;;;0.87;;
11893;SDS011;6006;49.696;8.662;2023-04-03T09:06:54;1.67;;;1.00;;
11893;SDS011;6006;49.696;8.662;2023-04-03T09:09:30;1.47;;;1.00;;
11893;SDS011;6006;49.696;8.662;2023-04-03T09:12:02;1.47;;;1.10;;
11893;SDS011;6006;49.696;8.662;2023-04-03T09:14:38;1.77;;;0.83;;
11893;SDS011;6006;49.696;8.662;2023-04-03T09:17:09;1.63;;;1.13;;
11893;SDS011;6006;49.696;8.662;2023-04-03T09:19:41;1.47;;;0.90;;
11893;SDS011;6006;49.696;8.662;2023-04-03T09:22:21;0.90;;;0.83;;
11893;SDS011;6006;49.696;8.662;2023-04-03T09:24:52;0.77;;;0.77;;
11893;SDS011;6006;49.696;8.662;2023-04-03T09:27:24;1.07;;;0.87;;
11893;SDS011;6006;49.696;8.662;2023-04-03T09:29:53;2.10;;;0.90;;
11893;SDS011;6006;49.696;8.662;2023-04-03T09:32:25;1.37;;;1.27;;
11893;SDS011;6006;49.696;8.662;2023-04-03T09:34:54;1.97;;;1.10;;
11893;SDS011;6006;49.696;8.662;2023-04-03T09:37:33;1.43;;;0.70;;
11893;SDS011;6006;49.696;8.662;2023-04-03T09:40:06;1.23;;;0.70;;
11893;SDS011;6006;49.696;8.662;2023-04-03T09:45:46;2.53;;;1.00;;
11893;SDS011;6006;49.696;8.662;2023-04-03T09:48:15;1.53;;;0.90;;
11893;SDS011;6006;49.696;8.662;2023-04-03T09:50:58;0.87;;;0.83;;
11893;SDS011;6006;49.696;8.662;2023-04-03T09:53:30;2.83;;;1.00;;
11893;SDS011;6006;49.696;8.662;2023-04-03T09:56:02;1.57;;;0.80;;
11893;SDS011;6006;49.696;8.662;2023-04-03T09:58:30;2.40;;;0.90;;
11893;SDS011;6006;49.696;8.662;2023-04-03T10:01:00;1.23;;;0.93;;
11893;SDS011;6006;49.696;8.662;2023-04-03T10:03:29;1.10;;;0.80;;
11893;SDS011;6006;49.696;8.662;2023-04-03T10:05:57;0.80;;;0.73;;
11893;SDS011;6006;49.696;8.662;2023-04-03T10:08:26;0.50;;;0.50;;
11893;SDS011;6006;49.696;8.662;2023-04-03T10:11:07;1.60;;;1.23;;
11893;SDS011;6006;49.696;8.662;2023-04-03T10:13:37;1.30;;;0.73;;
11893;SDS011;6006;49.696;8.662;2023-04-03T10:16:17;0.93;;;0.60;;
11893;SDS011;6006;49.696;8.662;2023-04-03T10:18:48;2.70;;;1.13;;
11893;SDS011;6006;49.696;8.662;2023-04-03T10:21:27;1.57;;;0.60;;
11893;SDS011;6006;49.696;8.662;2023-04-03T10:24:03;0.67;;;0.50;;
11893;SDS011;6006;49.696;8.662;2023-04-03T10:26:39;2.83;;;0.70;;
11893;SDS011;6006;49.696;8.662;2023-04-03T10:29:15;3.03;;;0.67;;
11893;SDS011;6006;49.696;8.662;2023-04-03T10:31:51;0.97;;;0.90;;
11893;SDS011;6006;49.696;8.662;2023-04-03T10:34:23;2.63;;;0.80;;
11893;SDS011;6006;49.696;8.662;2023-04-03T10:36:56;2.20;;;0.80;;
11893;SDS011;6006;49.696;8.662;2023-04-03T10:39:30;1.47;;;0.80;;
11893;SDS011;6006;49.696;8.662;2023-04-03T10:42:04;1.37;;;0.80;;
11893;SDS011;6006;49.696;8.662;2023-04-03T10:44:41;1.43;;;0.80;;
11893;SDS011;6006;49.696;8.662;2023-04-03T10:47:19;1.00;;;0.70;;
11893;SDS011;6006;49.696;8.662;2023-04-03T10:49:51;0.90;;;0.83;;
11893;SDS011;6006;49.696;8.662;2023-04-03T10:52:28;2.07;;;1.37;;
11893;SDS011;6006;49.696;8.662;2023-04-03T10:55:06;2.70;;;0.83;;
11893;SDS011;6006;49.696;8.662;2023-04-03T10:57:44;1.03;;;0.77;;
11893;SDS011;6006;49.696;8.662;2023-04-03T11:00:14;1.50;;;0.87;;
11893;SDS011;6006;49.696;8.662;2023-04-03T11:02:45;2.50;;;0.83;;
11893;SDS011;6006;49.696;8.662;2023-04-03T11:05:18;1.30;;;1.00;;
11893;SDS011;6006;49.696;8.662;2023-04-03T11:07:53;1.53;;;0.97;;
11893;SDS011;6006;49.696;8.662;2023-04-03T11:10:24;1.00;;;0.80;;
11893;SDS011;6006;49.696;8.662;2023-04-03T11:13:01;1.23;;;0.80;;
11893;SDS011;6006;49.696;8.662;2023-04-03T11:15:34;1.00;;;0.57;;
11893;SDS011;6006;49.696;8.662;2023-04-03T11:18:02;1.90;;;0.70;;
11893;SDS011;6006;49.696;8.662;2023-04-03T11:20:32;2.20;;;0.80;;
11893;SDS011;6006;49.696;8.662;2023-04-03T11:23:03;2.07;;;1.13;;
11893;SDS011;6006;49.696;8.662;2023-04-03T11:25:32;1.10;;;0.90;;
11893;SDS011;6006;49.696;8.662;2023-04-03T11:28:03;2.03;;;0.90;;
11893;SDS011;6006;49.696;8.662;2023-04-03T11:30:32;1.60;;;0.83;;
11893;SDS011;6006;49.696;8.662;2023-04-03T11:33:15;4.20;;;1.17;;
11893;SDS011;6006;49.696;8.662;2023-04-03T11:35:52;1.90;;;1.57;;
11893;SDS011;6006;49.696;8.662;2023-04-03T11:38:25;1.60;;;1.47;;
11893;SDS011;6006;49.696;8.662;2023-04-03T11:40:56;1.33;;;1.20;;
11893;SDS011;6006;49.696;8.662;2023-04-03T11:43:27;1.10;;;1.00;;
11893;SDS011;6006;49.696;8.662;2023-04-03T11:45:56;1.80;;;0.93;;
11893;SDS011;6006;49.696;8.662;2023-04-03T11:48:42;0.80;;;0.77;;
11893;SDS011;6006;49.696;8.662;2023-04-03T12:03:34;1.87;;;0.90;;
11893;SDS011;6006;49.696;8.662;2023-04-03T12:09:33;1.80;;;1.13;;
11893;SDS011;6006;49.696;8.662;2023-04-03T12:12:21;1.70;;;0.90;;
11893;SDS011;6006;49.696;8.662;2023-04-03T12:14:53;1.17;;;0.60;;
11893;SDS011;6006;49.696;8.662;2023-04-03T12:17:22;1.60;;;1.00;;
11893;SDS011;6006;49.696;8.662;2023-04-03T12:19:54;0.80;;;0.80;;
11893;SDS011;6006;49.696;8.662;2023-04-03T12:22:21;1.03;;;0.80;;
11893;SDS011;6006;49.696;8.662;2023-04-03T12:24:48;3.40;;;1.07;;
11893;SDS011;6006;49.696;8.662;2023-04-03T12:27:26;1.00;;;0.90;;
11893;SDS011;6006;49.696;8.662;2023-04-03T12:29:59;1.50;;;0.83;;
11893;SDS011;6006;49.696;8.662;2023-04-03T12:32:40;2.07;;;1.20;;
11893;SDS011;6006;49.696;8.662;2023-04-03T12:35:17;0.90;;;0.90;;
11893;SDS011;6006;49.696;8.662;2023-04-03T12:40:46;2.07;;;0.93;;
11893;SDS011;6006;49.696;8.662;2023-04-03T12:43:29;1.40;;;1.07;;
11893;SDS011;6006;49.696;8.662;2023-04-03T12:46:10;2.00;;;1.00;;
11893;SDS011;6006;49.696;8.662;2023-04-03T12:48:47;1.87;;;1.00;;
11893;SDS011;6006;49.696;8.662;2023-04-03T12:51:17;2.23;;;1.00;;
11893;SDS011;6006;49.696;8.662;2023-04-03T12:53:46;1.10;;;1.00;;
11893;SDS011;6006;49.696;8.662;2023-04-03T12:56:18;2.37;;;1.07;;
11893;SDS011;6006;49.696;8.662;2023-04-03T12:58:47;1.83;;;1.00;;
11893;SDS011;6006;49.696;8.662;2023-04-03T13:01:14;0.70;;;0.70;;
11893;SDS011;6006;49.696;8.662;2023-04-03T13:03:44;2.73;;;0.80;;
11893;SDS011;6006;49.696;8.662;2023-04-03T13:06:14;1.43;;;1.00;;
11893;SDS011;6006;49.696;8.662;2023-04-03T13:08:51;0.80;;;0.80;;
11893;SDS011;6006;49.696;8.662;2023-04-03T13:11:19;1.43;;;0.90;;
11893;SDS011;6006;49.696;8.662;2023-04-03T13:13:54;1.52;;;0.98;;
11893;SDS011;6006;49.696;8.662;2023-04-03T13:16:22;2.15;;;1.38;;
11893;SDS011;6006;49.696;8.662;2023-04-03T13:18:52;1.43;;;1.10;;
11893;SDS011;6006;49.696;8.662;2023-04-03T13:21:20;1.20;;;0.90;;
11893;SDS011;6006;49.696;8.662;2023-04-03T13:23:51;1.13;;;0.93;;
11893;SDS011;6006;49.696;8.662;2023-04-03T13:26:22;1.37;;;1.10;;
11893;SDS011;6006;49.696;8.662;2023-04-03T13:28:51;1.10;;;1.00;;
11893;SDS011;6006;49.696;8.662;2023-04-03T13:31:19;1.37;;;1.10;;
11893;SDS011;6006;49.696;8.662;2023-04-03T13:33:54;1.03;;;0.90;;
11893;SDS011;6006;49.696;8.662;2023-04-03T13:36:24;0.97;;;0.90;;
11893;SDS011;6006;49.696;8.662;2023-04-03T13:38:59;1.17;;;1.00;;
11893;SDS011;6006;49.696;8.662;2023-04-03T13:41:31;1.70;;;1.17;;
11893;SDS011;6006;49.696;8.662;2023-04-03T13:44:16;2.27;;;1.13;;
11893;SDS011;6006;49.696;8.662;2023-04-03T13:46:51;2.23;;;0.80;;
11893;SDS011;6006;49.696;8.662;2023-04-03T13:49:22;2.70;;;1.10;;
11893;SDS011;6006;49.696;8.662;2023-04-03T13:51:56;1.07;;;0.97;;
11893;SDS011;6006;49.696;8.662;2023-04-03T13:54:24;1.70;;;0.93;;
11893;SDS011;6006;49.696;8.662;2023-04-03T13:56:57;1.87;;;0.93;;
11893;SDS011;6006;49.696;8.662;2023-04-03T13:59:27;0.83;;;0.83;;
11893;SDS011;6006;49.696;8.662;2023-04-03T14:02:09;2.50;;;1.20;;
11893;SDS011;6006;49.696;8.662;2023-04-03T14:04:49;1.17;;;1.07;;
11893;SDS011;6006;49.696;8.662;2023-04-03T14:07:21;3.43;;;1.10;;
11893;SDS011;6006;49.696;8.662;2023-04-03T14:09:49;1.33;;;1.00;;
11893;SDS011;6006;49.696;8.662;2023-04-03T14:12:17;2.03;;;1.00;;
11893;SDS011;6006;49.696;8.662;2023-04-03T14:14:51;1.13;;;1.03;;
11893;SDS011;6006;49.696;8.662;2023-04-03T14:17:19;1.37;;;1.10;;
11893;SDS011;6006;49.696;8.662;2023-04-03T14:19:50;1.37;;;0.90;;
11893;SDS011;6006;49.696;8.662;2023-04-03T14:22:18;1.43;;;1.00;;
11893;SDS011;6006;49.696;8.662;2023-04-03T14:24:48;1.07;;;0.90;;
11893;SDS011;6006;49.696;8.662;2023-04-03T14:27:17;1.50;;;1.20;;
11893;SDS011;6006;49.696;8.662;2023-04-03T14:29:47;1.20;;;0.93;;
11893;SDS011;6006;49.696;8.662;2023-04-03T14:32:16;1.13;;;0.87;;
11893;SDS011;6006;49.696;8.662;2023-04-03T14:34:44;1.27;;;1.00;;
11893;SDS011;6006;49.696;8.662;2023-04-03T14:37:13;1.90;;;0.97;;
11893;SDS011;6006;49.696;8.662;2023-04-03T14:39:42;1.60;;;1.00;;
11893;SDS011;6006;49.696;8.662;2023-04-03T14:42:14;2.17;;;0.93;;
11893;SDS011;6006;49.696;8.662;2023-04-03T14:44:42;1.13;;;0.80;;
11893;SDS011;6006;49.696;8.662;2023-04-03T14:47:10;2.60;;;1.10;;
11893;SDS011;6006;49.696;8.662;2023-04-03T14:49:39;2.17;;;0.83;;
11893;SDS011;6006;49.696;8.662;2023-04-03T14:52:06;1.07;;;0.90;;
11893;SDS011;6006;49.696;8.662;2023-04-03T14:54:43;2.20;;;0.80;;
11893;SDS011;6006;49.696;8.662;2023-04-03T14:57:10;1.63;;;0.87;;
11893;SDS011;6006;49.696;8.662;2023-04-03T14:59:39;0.83;;;0.80;;
11893;SDS011;6006;49.696;8.662;2023-04-03T15:02:10;1.80;;;0.83;;
11893;SDS011;6006;49.696;8.662;2023-04-03T15:04:51;2.13;;;0.80;;
11893;SDS011;6006;49.696;8.662;2023-04-03T15:07:17;1.80;;;1.00;;
11893;SDS011;6006;49.696;8.662;2023-04-03T15:09:46;0.77;;;0.70;;
11893;SDS011;6006;49.696;8.662;2023-04-03T15:12:13;0.97;;;0.60;;
11893;SDS011;6006;49.696;8.662;2023-04-03T15:14:39;1.00;;;0.97;;
11893;SDS011;6006;49.696;8.662;2023-04-03T15:17:08;1.10;;;0.70;;
11893;SDS011;6006;49.696;8.662;2023-04-03T15:19:39;1.13;;;0.80;;
11893;SDS011;6006;49.696;8.662;2023-04-03T15:22:06;0.67;;;0.67;;
11893;SDS011;6006;49.696;8.662;2023-04-03T15:24:38;1.40;;;0.80;;
11893;SDS011;6006;49.696;8.662;2023-04-03T15:27:06;1.20;;;0.80;;
11893;SDS011;6006;49.696;8.662;2023-04-03T15:29:33;0.70;;;0.60;;
11893;SDS011;6006;49.696;8.662;2023-04-03T15:32:00;1.17;;;0.80;;
11893;SDS011;6006;49.696;8.662;2023-04-03T15:34:27;0.60;;;0.60;;
11893;SDS011;6006;49.696;8.662;2023-04-03T15:36:54;0.90;;;0.73;;
11893;SDS011;6006;49.696;8.662;2023-04-03T15:39:21;1.33;;;0.87;;